createdAt,value
2017-10-15T00:00:00.194Z,0
2017-10-15T00:00:40.595Z,0
2017-10-15T00:01:20.975Z,0
2017-10-15T00:02:01.369Z,0
2017-10-15T00:02:41.838Z,0
2017-10-15T00:03:22.252Z,0
2017-10-15T00:04:02.685Z,0
2017-10-15T00:04:43.136Z,0
2017-10-15T00:05:23.606Z,0
2017-10-15T00:06:03.936Z,0
2017-10-15T00:06:44.312Z,0
2017-10-15T00:07:24.763Z,0
2017-10-15T00:08:05.240Z,0
2017-10-15T00:08:45.569Z,0
2017-10-15T00:09:26.015Z,0
2017-10-15T00:10:06.410Z,0
2017-10-15T00:10:46.804Z,0
2017-10-15T00:11:27.216Z,0
2017-10-15T00:12:07.795Z,0
2017-10-15T00:12:48.198Z,0
2017-10-15T00:13:28.663Z,0
2017-10-15T00:14:09.023Z,0
2017-10-15T00:14:49.468Z,0
2017-10-15T00:15:29.831Z,0
2017-10-15T00:16:10.422Z,0
2017-10-15T00:16:50.795Z,0
2017-10-15T00:17:31.219Z,0
2017-10-15T00:18:11.601Z,0
2017-10-15T00:18:52.055Z,0
2017-10-15T00:19:32.412Z,0
2017-10-15T00:20:12.937Z,0
2017-10-15T00:20:53.356Z,0
2017-10-15T00:21:33.695Z,0
2017-10-15T00:22:14.145Z,0
2017-10-15T00:22:54.511Z,0
2017-10-15T00:23:34.899Z,0
2017-10-15T00:24:15.407Z,0
2017-10-15T00:24:55.812Z,0
2017-10-15T00:25:36.254Z,0
2017-10-15T00:26:16.703Z,0
2017-10-15T00:26:57.048Z,0
2017-10-15T00:27:37.555Z,0
2017-10-15T00:28:17.976Z,0
2017-10-15T00:28:58.386Z,0
2017-10-15T00:29:38.839Z,0
2017-10-15T00:30:19.292Z,0
2017-10-15T00:30:59.628Z,0
2017-10-15T00:31:40.172Z,0
2017-10-15T00:32:20.616Z,0
2017-10-15T00:33:00.987Z,0
2017-10-15T00:33:41.422Z,0
2017-10-15T00:34:21.846Z,0
2017-10-15T00:35:02.272Z,0
2017-10-15T00:35:42.707Z,0
2017-10-15T00:36:23.270Z,0
2017-10-15T00:37:03.916Z,0
2017-10-15T00:37:44.387Z,0
2017-10-15T00:38:24.820Z,0
2017-10-15T00:39:05.248Z,0
2017-10-15T00:39:45.631Z,0
2017-10-15T00:40:26.053Z,0
2017-10-15T00:41:06.493Z,0
2017-10-15T00:41:46.771Z,0
2017-10-15T00:42:27.224Z,0
2017-10-15T00:43:07.763Z,0
2017-10-15T00:43:48.154Z,0
2017-10-15T00:44:28.562Z,0
2017-10-15T00:45:08.997Z,0
2017-10-15T00:45:49.522Z,0
2017-10-15T00:46:29.916Z,0
2017-10-15T00:47:10.380Z,0
2017-10-15T00:47:50.768Z,0
2017-10-15T00:48:31.134Z,0
2017-10-15T00:49:11.512Z,0
2017-10-15T00:49:51.998Z,0
2017-10-15T00:50:32.403Z,0
2017-10-15T00:51:12.784Z,0
2017-10-15T00:51:53.234Z,0
2017-10-15T00:52:33.752Z,0
2017-10-15T00:53:14.213Z,0
2017-10-15T00:53:54.645Z,0
2017-10-15T00:54:35.013Z,0
2017-10-15T00:55:15.467Z,0
2017-10-15T00:55:55.841Z,0
2017-10-15T00:56:36.288Z,0
2017-10-15T00:57:16.648Z,0
2017-10-15T00:57:57.113Z,0
2017-10-15T00:58:37.420Z,0
2017-10-15T00:59:17.888Z,0
2017-10-15T00:59:58.295Z,0
2017-10-15T01:00:38.673Z,0
2017-10-15T01:01:19.188Z,0
2017-10-15T01:01:59.523Z,0
2017-10-15T01:02:40.052Z,0
2017-10-15T01:03:20.400Z,0
2017-10-15T01:04:00.911Z,0
2017-10-15T01:04:41.383Z,0
2017-10-15T01:05:21.732Z,0
2017-10-15T01:06:02.202Z,0
2017-10-15T01:06:42.666Z,0
2017-10-15T01:07:23.189Z,0
2017-10-15T01:08:03.675Z,0
2017-10-15T01:08:44.165Z,0
2017-10-15T01:09:24.620Z,0
2017-10-15T01:10:05.012Z,0
2017-10-15T01:10:45.356Z,0
2017-10-15T01:11:25.809Z,0
2017-10-15T01:12:06.225Z,0
2017-10-15T01:12:46.594Z,0
2017-10-15T01:13:26.950Z,0
2017-10-15T01:14:07.483Z,0
2017-10-15T01:14:47.846Z,0
2017-10-15T01:15:28.236Z,0
2017-10-15T01:16:08.642Z,0
2017-10-15T01:16:49.052Z,0
2017-10-15T01:17:29.438Z,0
2017-10-15T01:18:09.896Z,0
2017-10-15T01:18:50.226Z,0
2017-10-15T01:19:30.777Z,0
2017-10-15T01:20:11.258Z,0
2017-10-15T01:20:51.670Z,0
2017-10-15T01:21:32.058Z,0
2017-10-15T01:22:12.479Z,0
2017-10-15T01:22:52.926Z,0
2017-10-15T01:23:33.352Z,0
2017-10-15T01:24:13.859Z,0
2017-10-15T01:24:54.225Z,0
2017-10-15T01:25:34.607Z,0
2017-10-15T01:26:15.046Z,0
2017-10-15T01:26:55.564Z,0
2017-10-15T01:27:36.013Z,0
2017-10-15T01:28:16.381Z,0
2017-10-15T01:28:56.819Z,0
2017-10-15T01:29:37.159Z,0
2017-10-15T01:30:17.655Z,0
2017-10-15T01:30:57.954Z,0
2017-10-15T01:31:38.429Z,0
2017-10-15T01:32:18.777Z,0
2017-10-15T01:32:59.161Z,0
2017-10-15T01:33:39.592Z,0
2017-10-15T01:34:19.970Z,0
2017-10-15T01:35:00.407Z,0
2017-10-15T01:35:40.708Z,0
2017-10-15T01:36:21.210Z,0
2017-10-15T01:37:01.568Z,0
2017-10-15T01:37:41.965Z,0
2017-10-15T01:38:22.364Z,0
2017-10-15T01:39:02.739Z,0
2017-10-15T01:39:43.191Z,0
2017-10-15T01:40:23.639Z,0
2017-10-15T01:41:04.200Z,0
2017-10-15T01:41:44.711Z,0
2017-10-15T01:42:25.090Z,0
2017-10-15T01:43:05.446Z,0
2017-10-15T01:43:45.890Z,0
2017-10-15T01:44:26.320Z,0
2017-10-15T01:45:06.660Z,0
2017-10-15T01:45:47.083Z,0
2017-10-15T01:46:27.465Z,0
2017-10-15T01:47:07.933Z,0
2017-10-15T01:47:48.304Z,0
2017-10-15T01:48:28.784Z,0
2017-10-15T01:49:09.670Z,0
2017-10-15T01:49:49.802Z,0
2017-10-15T01:50:30.211Z,0
2017-10-15T01:51:10.594Z,0
2017-10-15T01:51:51.008Z,0
2017-10-15T01:52:31.410Z,0
2017-10-15T01:53:11.786Z,0
2017-10-15T01:53:52.217Z,0
2017-10-15T01:54:32.615Z,0
2017-10-15T01:55:13.172Z,0
2017-10-15T01:55:53.636Z,0
2017-10-15T01:56:34.168Z,0
2017-10-15T01:57:14.532Z,0
2017-10-15T01:57:55.058Z,0
2017-10-15T01:58:35.448Z,0
2017-10-15T01:59:16.011Z,0
2017-10-15T01:59:56.366Z,0
2017-10-15T02:00:36.871Z,0
2017-10-15T02:01:17.150Z,0
2017-10-15T02:01:57.562Z,0
2017-10-15T02:02:38.000Z,0
2017-10-15T02:03:18.380Z,0
2017-10-15T02:03:58.792Z,0
2017-10-15T02:04:39.210Z,0
2017-10-15T02:05:19.604Z,0
2017-10-15T02:06:00.253Z,0
2017-10-15T02:06:40.696Z,0
2017-10-15T02:07:21.098Z,0
2017-10-15T02:08:01.580Z,0
2017-10-15T02:08:42.063Z,0
2017-10-15T02:09:22.393Z,0
2017-10-15T02:10:02.936Z,0
2017-10-15T02:10:43.588Z,0
2017-10-15T02:11:23.992Z,0
2017-10-15T02:12:04.375Z,0
2017-10-15T02:12:44.814Z,0
2017-10-15T02:13:25.382Z,0
2017-10-15T02:14:05.754Z,0
2017-10-15T02:14:46.273Z,0
2017-10-15T02:15:26.696Z,0
2017-10-15T02:16:07.100Z,0
2017-10-15T02:16:47.495Z,0
2017-10-15T02:17:27.903Z,0
2017-10-15T02:18:08.345Z,0
2017-10-15T02:18:48.793Z,0
2017-10-15T02:19:29.237Z,0
2017-10-15T02:20:09.625Z,0
2017-10-15T02:20:50.028Z,0
2017-10-15T02:21:30.483Z,0
2017-10-15T02:22:10.863Z,0
2017-10-15T02:22:51.233Z,0
2017-10-15T02:23:31.764Z,0
2017-10-15T02:24:12.126Z,0
2017-10-15T02:24:52.574Z,0
2017-10-15T02:25:33.036Z,0
2017-10-15T02:26:13.564Z,0
2017-10-15T02:26:53.925Z,0
2017-10-15T02:27:34.252Z,0
2017-10-15T02:28:14.761Z,0
2017-10-15T02:28:55.085Z,0
2017-10-15T02:29:35.559Z,0
2017-10-15T02:30:15.894Z,0
2017-10-15T02:30:56.299Z,0
2017-10-15T02:31:36.796Z,0
2017-10-15T02:32:17.237Z,0
2017-10-15T02:32:57.567Z,0
2017-10-15T02:33:37.992Z,0
2017-10-15T02:34:18.374Z,0
2017-10-15T02:34:58.722Z,0
2017-10-15T02:35:39.208Z,0
2017-10-15T02:36:19.717Z,0
2017-10-15T02:36:59.945Z,0
2017-10-15T02:37:40.493Z,0
2017-10-15T02:38:20.970Z,0
2017-10-15T02:39:01.448Z,0
2017-10-15T02:39:41.852Z,0
2017-10-15T02:40:22.390Z,0
2017-10-15T02:41:02.715Z,0
2017-10-15T02:41:43.095Z,0
2017-10-15T02:42:23.513Z,0
2017-10-15T02:43:04.007Z,0
2017-10-15T02:43:44.445Z,0
2017-10-15T02:44:24.793Z,0
2017-10-15T02:45:05.249Z,0
2017-10-15T02:45:45.738Z,0
2017-10-15T02:46:26.294Z,0
2017-10-15T02:47:06.699Z,0
2017-10-15T02:47:47.183Z,0
2017-10-15T02:48:27.551Z,0
2017-10-15T02:49:07.922Z,0
2017-10-15T02:49:48.337Z,0
2017-10-15T02:50:28.770Z,0
2017-10-15T02:51:09.243Z,0
2017-10-15T02:51:49.522Z,0
2017-10-15T02:52:29.928Z,0
2017-10-15T02:53:10.411Z,0
2017-10-15T02:53:50.821Z,0
2017-10-15T02:54:31.332Z,0
2017-10-15T02:55:11.853Z,0
2017-10-15T02:55:52.415Z,0
2017-10-15T02:56:32.755Z,0
2017-10-15T02:57:13.285Z,0
2017-10-15T02:57:53.655Z,0
2017-10-15T02:58:34.068Z,0
2017-10-15T02:59:14.457Z,0
2017-10-15T02:59:54.894Z,0
2017-10-15T03:00:35.450Z,0
2017-10-15T03:01:15.829Z,0
2017-10-15T03:01:56.249Z,0
2017-10-15T03:02:36.655Z,0
2017-10-15T03:03:17.041Z,0
2017-10-15T03:03:57.485Z,0
2017-10-15T03:04:37.905Z,0
2017-10-15T03:05:18.298Z,0
2017-10-15T03:05:58.616Z,0
2017-10-15T03:06:39.206Z,0
2017-10-15T03:07:19.768Z,0
2017-10-15T03:08:00.218Z,0
2017-10-15T03:08:40.693Z,0
2017-10-15T03:09:21.188Z,0
2017-10-15T03:10:01.598Z,0
2017-10-15T03:10:42.028Z,0
2017-10-15T03:11:22.468Z,0
2017-10-15T03:12:02.834Z,0
2017-10-15T03:12:43.322Z,0
2017-10-15T03:13:23.704Z,0
2017-10-15T03:14:04.180Z,0
2017-10-15T03:14:44.711Z,0
2017-10-15T03:15:25.173Z,0
2017-10-15T03:16:05.532Z,0
2017-10-15T03:16:45.962Z,0
2017-10-15T03:17:26.344Z,0
2017-10-15T03:18:06.832Z,0
2017-10-15T03:18:47.309Z,0
2017-10-15T03:19:27.656Z,0
2017-10-15T03:20:08.097Z,0
2017-10-15T03:20:48.544Z,0
2017-10-15T03:21:28.866Z,0
2017-10-15T03:22:09.331Z,0
2017-10-15T03:22:49.733Z,0
2017-10-15T03:23:30.238Z,0
2017-10-15T03:24:10.566Z,0
2017-10-15T03:24:51.017Z,0
2017-10-15T03:25:31.503Z,0
2017-10-15T03:26:11.881Z,0
2017-10-15T03:26:52.223Z,0
2017-10-15T03:27:32.676Z,0
2017-10-15T03:28:13.110Z,0
2017-10-15T03:28:53.439Z,0
2017-10-15T03:29:33.909Z,0
2017-10-15T03:30:14.320Z,0
2017-10-15T03:30:54.803Z,0
2017-10-15T03:31:35.223Z,0
2017-10-15T03:32:15.708Z,0
2017-10-15T03:32:56.140Z,0
2017-10-15T03:33:36.545Z,0
2017-10-15T03:34:16.941Z,0
2017-10-15T03:34:57.406Z,0
2017-10-15T03:35:37.908Z,0
2017-10-15T03:36:18.283Z,0
2017-10-15T03:36:58.702Z,0
2017-10-15T03:37:39.163Z,0
2017-10-15T03:38:19.579Z,0
2017-10-15T03:38:59.959Z,0
2017-10-15T03:39:40.422Z,0
2017-10-15T03:40:20.821Z,0
2017-10-15T03:41:01.290Z,0
2017-10-15T03:41:41.757Z,0
2017-10-15T03:42:22.182Z,0
2017-10-15T03:43:02.594Z,0
2017-10-15T03:43:43.049Z,0
2017-10-15T03:44:23.449Z,0
2017-10-15T03:45:03.921Z,0
2017-10-15T03:45:44.447Z,0
2017-10-15T03:46:24.774Z,0
2017-10-15T03:47:05.984Z,0
2017-10-15T03:47:46.400Z,0
2017-10-15T03:48:26.835Z,0
2017-10-15T03:49:07.212Z,0
2017-10-15T03:49:47.649Z,0
2017-10-15T03:50:28.094Z,0
2017-10-15T03:51:08.541Z,0
2017-10-15T03:51:49.002Z,0
2017-10-15T03:52:29.416Z,0
2017-10-15T03:53:09.949Z,0
2017-10-15T03:53:50.449Z,0
2017-10-15T03:54:30.856Z,0
2017-10-15T03:55:11.214Z,0
2017-10-15T03:55:51.796Z,0
2017-10-15T03:56:32.147Z,0
2017-10-15T03:57:12.733Z,0
2017-10-15T03:57:53.350Z,0
2017-10-15T03:58:33.788Z,0
2017-10-15T03:59:14.181Z,0
2017-10-15T03:59:54.594Z,0
2017-10-15T04:00:35.053Z,0
2017-10-15T04:01:15.556Z,0
2017-10-15T04:01:56.040Z,0
2017-10-15T04:02:36.446Z,0
2017-10-15T04:03:16.972Z,0
2017-10-15T04:03:57.493Z,0
2017-10-15T04:04:37.877Z,0
2017-10-15T04:05:18.429Z,0
2017-10-15T04:05:59.039Z,0
2017-10-15T04:06:39.524Z,0
2017-10-15T04:07:19.803Z,0
2017-10-15T04:08:00.257Z,0
2017-10-15T04:08:40.706Z,0
2017-10-15T04:09:21.078Z,0
2017-10-15T04:10:01.530Z,0
2017-10-15T04:10:42.055Z,0
2017-10-15T04:11:22.395Z,0
2017-10-15T04:12:03.127Z,0
2017-10-15T04:12:43.573Z,0
2017-10-15T04:13:23.868Z,0
2017-10-15T04:14:04.384Z,0
2017-10-15T04:14:44.836Z,0
2017-10-15T04:15:25.263Z,0
2017-10-15T04:16:05.719Z,0
2017-10-15T04:16:46.296Z,0
2017-10-15T04:17:26.478Z,0
2017-10-15T04:18:06.884Z,0
2017-10-15T04:18:47.341Z,0
2017-10-15T04:19:27.742Z,0
2017-10-15T04:20:08.224Z,0
2017-10-15T04:20:48.729Z,0
2017-10-15T04:21:29.227Z,0
2017-10-15T04:22:09.473Z,0
2017-10-15T04:22:50.095Z,0
2017-10-15T04:23:30.470Z,0
2017-10-15T04:24:10.825Z,0
2017-10-15T04:24:51.537Z,0
2017-10-15T04:25:32.006Z,0
2017-10-15T04:26:12.345Z,0
2017-10-15T04:26:52.773Z,0
2017-10-15T04:27:33.267Z,0
2017-10-15T04:28:13.779Z,0
2017-10-15T04:28:54.108Z,0
2017-10-15T04:29:34.415Z,0
2017-10-15T04:30:14.880Z,0
2017-10-15T04:30:55.319Z,0
2017-10-15T04:31:35.825Z,0
2017-10-15T04:32:16.368Z,0
2017-10-15T04:32:56.719Z,0
2017-10-15T04:33:37.199Z,0
2017-10-15T04:34:17.470Z,0
2017-10-15T04:34:58.016Z,0
2017-10-15T04:35:38.597Z,0
2017-10-15T04:36:18.942Z,0
2017-10-15T04:36:59.397Z,0
2017-10-15T04:37:39.762Z,0
2017-10-15T04:38:20.365Z,0
2017-10-15T04:39:00.780Z,0
2017-10-15T04:39:41.235Z,0
2017-10-15T04:40:21.741Z,0
2017-10-15T04:41:02.048Z,0
2017-10-15T04:41:42.519Z,0
2017-10-15T04:42:22.914Z,0
2017-10-15T04:43:03.344Z,0
2017-10-15T04:43:43.752Z,0
2017-10-15T04:44:24.351Z,0
2017-10-15T04:45:04.710Z,0
2017-10-15T04:45:45.336Z,0
2017-10-15T04:46:25.822Z,0
2017-10-15T04:47:06.144Z,0
2017-10-15T04:47:46.566Z,0
2017-10-15T04:48:26.936Z,0
2017-10-15T04:49:07.390Z,0
2017-10-15T04:49:47.866Z,0
2017-10-15T04:50:28.280Z,0
2017-10-15T04:51:08.760Z,0
2017-10-15T04:51:49.246Z,0
2017-10-15T04:52:29.596Z,0
2017-10-15T04:53:10.173Z,0
2017-10-15T04:53:50.747Z,0
2017-10-15T04:56:32.409Z,0
2017-10-15T04:57:24.915Z,0
2017-10-15T04:58:18.429Z,0
2017-10-15T04:59:12.554Z,0
2017-10-15T05:00:05.976Z,0
2017-10-15T05:00:58.626Z,0
2017-10-15T05:01:50.857Z,0
2017-10-15T05:02:43.396Z,0
2017-10-15T05:03:36.012Z,0
2017-10-15T05:04:28.303Z,0
2017-10-15T05:05:20.793Z,0
2017-10-15T05:06:12.857Z,0
2017-10-15T05:07:07.038Z,0
2017-10-15T05:07:59.364Z,0
2017-10-15T05:08:51.705Z,0
2017-10-15T05:09:44.239Z,0
2017-10-15T05:10:36.387Z,0
2017-10-15T05:11:30.354Z,0
2017-10-15T05:12:22.505Z,0
2017-10-15T05:13:14.921Z,0
2017-10-15T05:14:10.386Z,0
2017-10-15T05:15:03.297Z,0
2017-10-15T05:15:56.769Z,0
2017-10-15T05:16:48.517Z,0
2017-10-15T05:17:40.726Z,0
2017-10-15T05:18:34.006Z,0
2017-10-15T05:19:26.438Z,0
2017-10-15T05:20:18.757Z,0
2017-10-15T05:21:10.933Z,0
2017-10-15T05:22:03.898Z,0
2017-10-15T05:22:57.277Z,0
2017-10-15T05:23:49.859Z,0
2017-10-15T05:24:42.236Z,0
2017-10-15T05:25:35.865Z,0
2017-10-15T05:26:29.048Z,0
2017-10-15T05:27:21.350Z,0
2017-10-15T05:28:15.393Z,0
2017-10-15T05:29:07.504Z,0
2017-10-15T05:30:00.382Z,0
2017-10-15T05:30:52.393Z,0
2017-10-15T05:31:32.359Z,0
2017-10-15T05:32:12.715Z,0
2017-10-15T05:32:53.310Z,0
2017-10-15T05:33:33.529Z,0
2017-10-15T05:34:14.000Z,0
2017-10-15T05:34:54.484Z,0
2017-10-15T05:35:34.818Z,0
2017-10-15T05:36:15.218Z,0
2017-10-15T05:36:55.707Z,0
2017-10-15T05:37:36.402Z,0
2017-10-15T05:38:16.809Z,0
2017-10-15T05:38:57.165Z,0
2017-10-15T05:39:38.883Z,0
2017-10-15T05:40:18.969Z,0
2017-10-15T05:40:59.350Z,0
2017-10-15T05:41:39.921Z,0
2017-10-15T05:42:20.268Z,0
2017-10-15T05:43:00.769Z,0
2017-10-15T05:43:41.207Z,0
2017-10-15T05:44:21.717Z,0
2017-10-15T05:45:02.224Z,0
2017-10-15T05:45:42.673Z,0
2017-10-15T05:46:24.192Z,0
2017-10-15T05:47:04.395Z,0
2017-10-15T05:47:44.839Z,0
2017-10-15T05:48:25.301Z,0
2017-10-15T05:49:05.747Z,0
2017-10-15T05:49:46.202Z,0
2017-10-15T05:50:26.603Z,0
2017-10-15T05:51:06.968Z,0
2017-10-15T05:51:47.515Z,0
2017-10-15T05:52:27.875Z,0
2017-10-15T05:53:08.326Z,0
2017-10-15T05:53:48.806Z,0
2017-10-15T05:54:29.187Z,0
2017-10-15T05:55:09.724Z,0
2017-10-15T05:55:49.993Z,0
2017-10-15T05:56:30.460Z,0
2017-10-15T05:57:11.136Z,0
2017-10-15T05:57:51.761Z,5
2017-10-15T05:58:32.190Z,5
2017-10-15T05:59:12.904Z,5
2017-10-15T05:59:53.597Z,5
2017-10-15T06:00:33.795Z,5
2017-10-15T06:01:14.251Z,5
2017-10-15T06:01:54.735Z,5
2017-10-15T06:02:35.033Z,5
2017-10-15T06:03:15.434Z,5
2017-10-15T06:03:55.974Z,5
2017-10-15T06:04:36.421Z,5
2017-10-15T06:05:16.811Z,10
2017-10-15T06:05:57.266Z,10
2017-10-15T06:06:37.628Z,10
2017-10-15T06:07:18.051Z,10
2017-10-15T06:07:58.414Z,15
2017-10-15T06:08:38.864Z,15
2017-10-15T06:09:19.262Z,15
2017-10-15T06:10:00.166Z,20
2017-10-15T06:10:40.599Z,25
2017-10-15T06:11:21.121Z,20
2017-10-15T06:12:01.740Z,25
2017-10-15T06:12:44.883Z,35
2017-10-15T06:13:25.257Z,50
2017-10-15T06:14:05.745Z,60
2017-10-15T06:14:46.179Z,65
2017-10-15T06:15:26.571Z,80
2017-10-15T06:16:06.992Z,80
2017-10-15T06:16:47.539Z,85
2017-10-15T06:17:27.926Z,70
2017-10-15T06:18:08.272Z,65
2017-10-15T06:18:48.662Z,50
2017-10-15T06:19:29.176Z,55
2017-10-15T06:20:09.630Z,75
2017-10-15T06:20:49.957Z,95
2017-10-15T06:21:30.499Z,110
2017-10-15T06:22:10.872Z,120
2017-10-15T06:22:51.340Z,125
2017-10-15T06:23:31.839Z,115
2017-10-15T06:24:12.244Z,110
2017-10-15T06:24:52.638Z,120
2017-10-15T06:25:33.294Z,140
2017-10-15T06:26:13.612Z,155
2017-10-15T06:26:54.011Z,165
2017-10-15T06:27:34.501Z,170
2017-10-15T06:28:14.891Z,175
2017-10-15T06:28:55.481Z,185
2017-10-15T06:29:35.980Z,195
2017-10-15T06:30:16.446Z,190
2017-10-15T06:30:57.094Z,195
2017-10-15T06:31:37.273Z,200
2017-10-15T06:32:17.765Z,200
2017-10-15T06:32:58.176Z,210
2017-10-15T06:33:38.785Z,220
2017-10-15T06:34:19.130Z,235
2017-10-15T06:34:59.582Z,240
2017-10-15T06:35:40.061Z,240
2017-10-15T06:36:20.576Z,245
2017-10-15T06:37:00.850Z,250
2017-10-15T06:37:41.415Z,265
2017-10-15T06:38:21.855Z,270
2017-10-15T06:39:02.218Z,265
2017-10-15T06:39:42.601Z,215
2017-10-15T06:40:23.015Z,135
2017-10-15T06:41:04.264Z,85
2017-10-15T06:41:44.868Z,70
2017-10-15T06:42:25.250Z,75
2017-10-15T06:43:05.679Z,65
2017-10-15T06:43:46.065Z,65
2017-10-15T06:44:26.630Z,65
2017-10-15T06:45:06.931Z,70
2017-10-15T06:45:47.391Z,70
2017-10-15T06:46:27.714Z,70
2017-10-15T06:47:08.078Z,70
2017-10-15T06:47:48.600Z,70
2017-10-15T06:48:29.412Z,70
2017-10-15T06:49:09.829Z,70
2017-10-15T06:49:50.349Z,75
2017-10-15T06:50:30.610Z,75
2017-10-15T06:51:11.096Z,80
2017-10-15T06:51:51.614Z,80
2017-10-15T06:52:32.051Z,85
2017-10-15T06:53:12.443Z,85
2017-10-15T06:53:52.882Z,85
2017-10-15T06:54:33.553Z,85
2017-10-15T06:55:13.979Z,85
2017-10-15T06:55:54.414Z,90
2017-10-15T06:56:34.940Z,90
2017-10-15T06:57:15.551Z,90
2017-10-15T06:57:55.851Z,90
2017-10-15T06:58:36.338Z,90
2017-10-15T06:59:16.890Z,90
2017-10-15T06:59:57.300Z,90
2017-10-15T07:00:37.803Z,90
2017-10-15T07:01:18.208Z,90
2017-10-15T07:01:58.994Z,90
2017-10-15T07:02:39.537Z,90
2017-10-15T07:03:19.953Z,90
2017-10-15T07:04:00.519Z,90
2017-10-15T07:04:40.986Z,90
2017-10-15T07:05:21.245Z,90
2017-10-15T07:06:01.875Z,90
2017-10-15T07:06:42.998Z,90
2017-10-15T07:07:23.401Z,95
2017-10-15T07:08:03.847Z,95
2017-10-15T07:08:44.258Z,90
2017-10-15T07:09:24.740Z,90
2017-10-15T07:13:13.313Z,95
2017-10-15T07:14:07.311Z,100
2017-10-15T07:15:02.630Z,90
2017-10-15T07:15:55.048Z,90
2017-10-15T07:16:49.677Z,85
2017-10-15T07:17:45.636Z,85
2017-10-15T07:18:41.501Z,80
2017-10-15T07:19:35.852Z,80
2017-10-15T07:20:29.949Z,80
2017-10-15T07:21:23.985Z,80
2017-10-15T07:22:23.549Z,80
2017-10-15T07:23:20.893Z,80
2017-10-15T07:24:15.140Z,75
2017-10-15T07:25:08.716Z,75
2017-10-15T07:26:03.491Z,75
2017-10-15T07:26:58.942Z,75
2017-10-15T07:27:53.062Z,75
2017-10-15T07:28:49.166Z,75
2017-10-15T07:31:57.704Z,80
2017-10-15T07:32:50.537Z,75
2017-10-15T07:33:45.671Z,75
2017-10-15T07:34:38.895Z,75
2017-10-15T07:35:31.064Z,75
2017-10-15T07:36:30.026Z,70
2017-10-15T07:37:20.900Z,70
2017-10-15T07:38:14.799Z,75
2017-10-15T07:39:07.169Z,70
2017-10-15T07:40:08.402Z,70
2017-10-15T07:41:02.736Z,70
2017-10-15T07:41:57.650Z,70
2017-10-15T07:42:53.022Z,65
2017-10-15T07:43:47.785Z,65
2017-10-15T07:44:49.551Z,65
2017-10-15T07:45:47.479Z,65
2017-10-15T07:46:41.852Z,65
2017-10-15T07:47:37.408Z,65
2017-10-15T07:48:30.933Z,65
2017-10-15T07:49:16.713Z,65
2017-10-15T07:49:57.352Z,65
2017-10-15T07:50:38.021Z,65
2017-10-15T07:51:18.623Z,65
2017-10-15T07:51:59.214Z,65
2017-10-15T07:52:40.159Z,65
2017-10-15T07:53:20.696Z,65
2017-10-15T07:54:01.053Z,65
2017-10-15T07:54:41.295Z,65
2017-10-15T07:55:21.959Z,65
2017-10-15T07:56:02.390Z,65
2017-10-15T07:56:42.731Z,65
2017-10-15T07:57:23.177Z,65
2017-10-15T07:58:04.451Z,65
2017-10-15T07:58:44.151Z,65
2017-10-15T07:59:24.649Z,65
2017-10-15T08:00:05.436Z,65
2017-10-15T08:00:45.868Z,65
2017-10-15T08:01:26.712Z,65
2017-10-15T08:02:07.436Z,65
2017-10-15T08:02:47.879Z,65
2017-10-15T08:03:28.527Z,65
2017-10-15T08:04:08.883Z,65
2017-10-15T08:04:49.324Z,65
2017-10-15T08:05:30.072Z,65
2017-10-15T08:06:12.295Z,65
2017-10-15T08:06:52.717Z,65
2017-10-15T08:07:33.541Z,65
2017-10-15T08:08:13.976Z,65
2017-10-15T08:08:54.545Z,65
2017-10-15T08:09:35.235Z,65
2017-10-15T08:10:15.498Z,65
2017-10-15T08:10:56.126Z,65
2017-10-15T08:11:36.604Z,65
2017-10-15T08:12:17.018Z,65
2017-10-15T08:12:57.581Z,65
2017-10-15T08:13:37.970Z,65
2017-10-15T08:14:18.428Z,65
2017-10-15T08:14:58.775Z,65
2017-10-15T08:15:39.523Z,65
2017-10-15T08:16:19.953Z,65
2017-10-15T08:17:00.414Z,65
2017-10-15T08:17:40.968Z,65
2017-10-15T08:18:21.474Z,65
2017-10-15T08:19:02.068Z,65
2017-10-15T08:19:42.630Z,65
2017-10-15T08:20:22.867Z,65
2017-10-15T08:21:03.604Z,65
2017-10-15T08:21:43.824Z,60
2017-10-15T08:22:24.257Z,65
2017-10-15T08:23:04.712Z,60
2017-10-15T08:23:45.277Z,60
2017-10-15T08:24:26.440Z,60
2017-10-15T08:25:06.927Z,60
2017-10-15T08:25:47.957Z,60
2017-10-15T08:26:31.438Z,65
2017-10-15T08:27:11.377Z,60
2017-10-15T08:27:51.762Z,60
2017-10-15T08:28:32.154Z,60
2017-10-15T08:29:12.646Z,65
2017-10-15T08:29:53.223Z,60
2017-10-15T08:30:33.622Z,60
2017-10-15T08:31:14.179Z,60
2017-10-15T08:31:54.493Z,60
2017-10-15T08:32:34.914Z,60
2017-10-15T08:33:15.365Z,60
2017-10-15T08:33:56.067Z,60
2017-10-15T08:34:36.633Z,60
2017-10-15T08:35:17.219Z,60
2017-10-15T08:35:58.057Z,60
2017-10-15T08:36:38.493Z,60
2017-10-15T08:37:19.051Z,60
2017-10-15T08:37:59.334Z,60
2017-10-15T08:38:39.876Z,60
2017-10-15T08:39:20.431Z,60
2017-10-15T08:40:00.782Z,60
2017-10-15T08:40:41.418Z,60
2017-10-15T08:41:21.944Z,60
2017-10-15T08:42:02.423Z,60
2017-10-15T08:42:42.746Z,60
2017-10-15T08:43:23.295Z,60
2017-10-15T08:44:03.859Z,60
2017-10-15T08:44:44.238Z,60
2017-10-15T08:45:24.653Z,60
2017-10-15T08:46:05.014Z,60
2017-10-15T08:46:45.447Z,60
2017-10-15T08:47:26.131Z,60
2017-10-15T08:48:06.790Z,60
2017-10-15T08:48:47.315Z,60
2017-10-15T08:49:27.760Z,60
2017-10-15T08:50:08.191Z,60
2017-10-15T08:50:48.800Z,60
2017-10-15T08:51:29.269Z,60
2017-10-15T08:52:09.651Z,60
2017-10-15T08:52:50.072Z,60
2017-10-15T08:53:30.646Z,60
2017-10-15T08:54:11.378Z,60
2017-10-15T08:54:51.882Z,60
2017-10-15T08:55:32.579Z,60
2017-10-15T08:56:12.735Z,60
2017-10-15T08:56:53.121Z,60
2017-10-15T08:57:33.985Z,60
2017-10-15T08:58:14.743Z,60
2017-10-15T08:58:55.263Z,60
2017-10-15T08:59:35.764Z,60
2017-10-15T09:00:16.393Z,60
2017-10-15T09:00:57.086Z,60
2017-10-15T09:01:37.432Z,60
2017-10-15T09:02:18.113Z,60
2017-10-15T09:02:58.591Z,60
2017-10-15T09:03:38.992Z,60
2017-10-15T09:04:19.475Z,60
2017-10-15T09:05:00.143Z,60
2017-10-15T09:05:40.692Z,60
2017-10-15T09:06:21.232Z,60
2017-10-15T09:07:01.736Z,60
2017-10-15T09:07:42.106Z,60
2017-10-15T09:08:22.534Z,60
2017-10-15T09:09:02.926Z,60
2017-10-15T09:09:43.484Z,60
2017-10-15T09:10:23.980Z,60
2017-10-15T09:11:04.426Z,60
2017-10-15T09:11:44.858Z,60
2017-10-15T09:12:25.201Z,60
2017-10-15T09:13:05.777Z,60
2017-10-15T09:13:46.148Z,60
2017-10-15T09:14:26.566Z,60
2017-10-15T09:15:07.050Z,60
2017-10-15T09:15:47.443Z,60
2017-10-15T09:16:28.169Z,60
2017-10-15T09:17:08.520Z,60
2017-10-15T09:17:48.787Z,60
2017-10-15T09:18:29.761Z,60
2017-10-15T09:19:10.391Z,60
2017-10-15T09:19:50.989Z,60
2017-10-15T09:20:32.075Z,60
2017-10-15T09:21:12.846Z,60
2017-10-15T09:21:53.346Z,60
2017-10-15T09:22:35.315Z,60
2017-10-15T09:23:14.384Z,60
2017-10-15T09:23:56.203Z,60
2017-10-15T09:26:44.074Z,60
2017-10-15T09:27:37.606Z,60
2017-10-15T09:28:34.595Z,60
2017-10-15T09:29:29.716Z,60
2017-10-15T09:30:19.258Z,60
2017-10-15T09:30:59.671Z,60
2017-10-15T09:31:40.044Z,60
2017-10-15T09:32:21.482Z,60
2017-10-15T09:33:01.870Z,60
2017-10-15T09:33:42.376Z,60
2017-10-15T09:34:22.703Z,60
2017-10-15T09:35:03.089Z,60
2017-10-15T09:35:43.730Z,60
2017-10-15T09:36:24.158Z,60
2017-10-15T09:37:04.537Z,60
2017-10-15T09:37:44.982Z,60
2017-10-15T09:38:25.476Z,60
2017-10-15T09:39:05.977Z,60
2017-10-15T09:39:46.422Z,60
2017-10-15T09:40:26.833Z,60
2017-10-15T09:41:07.334Z,60
2017-10-15T09:41:53.790Z,60
2017-10-15T09:42:34.226Z,60
2017-10-15T09:43:14.615Z,60
2017-10-15T09:43:55.179Z,60
2017-10-15T09:44:35.554Z,60
2017-10-15T09:45:16.052Z,60
2017-10-15T09:45:56.600Z,60
2017-10-15T09:46:37.053Z,60
2017-10-15T09:47:17.493Z,60
2017-10-15T09:47:57.990Z,60
2017-10-15T09:48:39.005Z,60
2017-10-15T09:49:18.762Z,60
2017-10-15T09:49:59.448Z,65
2017-10-15T09:50:39.861Z,60
2017-10-15T09:51:20.274Z,60
2017-10-15T09:52:00.821Z,65
2017-10-15T09:52:41.215Z,60
2017-10-15T09:53:21.949Z,65
2017-10-15T09:54:02.677Z,60
2017-10-15T09:54:43.012Z,60
2017-10-15T09:55:23.902Z,60
2017-10-15T09:56:04.166Z,60
2017-10-15T09:56:45.510Z,60
2017-10-15T09:57:25.303Z,60
2017-10-15T09:58:05.920Z,60
2017-10-15T09:58:46.378Z,60
2017-10-15T09:59:26.776Z,60
2017-10-15T10:00:07.191Z,60
2017-10-15T10:00:47.644Z,60
2017-10-15T10:01:28.017Z,60
2017-10-15T10:02:08.480Z,60
2017-10-15T10:02:48.824Z,60
2017-10-15T10:03:29.232Z,60
2017-10-15T10:04:09.655Z,60
2017-10-15T10:04:50.059Z,60
2017-10-15T10:05:30.572Z,60
2017-10-15T10:06:10.997Z,60
2017-10-15T10:06:51.331Z,60
2017-10-15T10:07:31.767Z,60
2017-10-15T10:08:12.293Z,60
2017-10-15T10:08:52.768Z,60
2017-10-15T10:09:33.191Z,60
2017-10-15T10:10:14.203Z,60
2017-10-15T10:10:54.486Z,60
2017-10-15T10:11:34.961Z,60
2017-10-15T10:12:15.486Z,60
2017-10-15T10:12:56.062Z,60
2017-10-15T10:13:36.435Z,60
2017-10-15T10:14:16.833Z,60
2017-10-15T10:14:57.275Z,60
2017-10-15T10:15:37.705Z,60
2017-10-15T10:16:18.126Z,60